Terminal Aerodrome Forecast
Issued by NWS

Home | Current Version | Previous Version | Text Only | Print | Product List | Glossary On
Versions: 1 2 3 4 5 6 7 8 9 10 11 12
000
FTUS45 KRIW 030537
TAFCPR
TAF
KCPR 030537Z 0306/0406 08009KT P6SM SCT120 BKN200
     FM031300 23010KT P6SM SCT100 BKN200
     FM031900 10010G18KT P6SM VCTS SCT070CB OVC100
     FM040200 19011KT P6SM -SHRA VCTS SCT040 OVC070CB=

USA.gov is the U.S. government's official web portal to all federal, state and local government web resources and services.